My Meet Scores
Birdie Berson, Aspire Gymnastics Academy - MyMeetScores.com
Top100 | Top Teams | Upcoming Meets | Completed Meets | Latest | Add Scores | Help| Support | Bookmark and Share

Birdie Berson, Aspire Gymnastics Academy
Personal Bests
LevelVault BarsBeamFloorAA
39.5009.875 9.7509.62538.275
49.0009.700 9.3009.00036.200
XG9.1509.450 9.5759.32536.850
Scores on America's Top 100as of 10.05.2022
Year Level Vault Bars Beam Floor AA
2019 39.875
2020 39.875, 9.8009.750

Click here to view our exclusive Top 100 Collection
Meet Scores
Date Meet Team Session Level Division Vault Bars Beam Floor AA
2022-04-08 Illinois Xcel State Championships 2022 Aspire Gymnastics Academy 06A XG Ch D 8.950 7 9.450 6 8.725 20T 9.050 23 36.175 15
2022-03-10 Lucky Invite Aspire Gymnastics Academy B11 XG Younger 8.800 8T 9.300 10 8.350 22 9.325 17T 35.775 12
2022-02-24 Great Western Invitational - Women%27s Aspire Gymnastics Academy 3A XG Cowgirl 9.150 3 9.450 7T 9.300 5T 8.950 14 36.850 5
2022-01-21 UGA Invitational Aspire Gymnastics Academy B02 XG Ch A 8.700 8 9.425 3 9.575 1 9.100 12 36.800 3
2021-12-17 Aspire Classic 2021 Aspire Gymnastics Academy 3 XG Younger 8.400 8T 9.400 1 9.225 4 8.050 14 35.075 5T
2021-02-26 Kinetic Classic 2021 Aspire Gymnastics Academy 10 4 Younger 8.800 10T 9.700 2 8.700 15 7.725 23 34.925 15
2021-02-12 Super Girl Invite Aspire Gymnastics Academy 1 4 Jr B 8.300 8 9.150 1 9.300 1T 9.000 5T 35.750 3
2021-01-14 2021 Bravo Classic Aspire Gymnastics Academy 5 4 Child 8.550 19T 9.400 3T 8.700 13 8.650 9T 35.300 10T
2020-12-18 Aspire Classic Aspire Gymnastics Academy 8 4 Younger 9.000 3 9.050 2 7.900 12 8.900 1T 34.850 5
2020-12-11 St Nick Invite Aspire Gymnastics Academy 6 4 JrB 9.000 1T 9.300 3 9.100 2T 8.800 8 36.200 2T
2020-02-21 Great Western Invitational - Women's Aspire Gymnastics Academy 01 3 Cowgirl 9.375 8 9.775 1 8.650 7 8.825 7 36.625 3
2020-02-14 Big Classic Aspire Gymnastics Academy 7B 3 Child D 9.325 17T 9.800 2 9.175 7 8.700 44T 37.000 8
2020-01-24 Uga Invitational Aspire Gymnastics Academy B6 3 Jr B 9.100 3 9.750 1 8.600 10 9.350 5 36.800 2T
2020-01-17 2020 Bravo Classic Aspire Gymnastics Academy 11B 3 Jr 9.050 8T 9.875 1 9.750 1 9.600 1 38.275 1
2019-12-20 Aspire Classic - 2019 Aspire Gymnastics Academy 5A 3 Middle 9.050 4 9.675 1 8.750 9 9.625 2T 37.100 2
2019-12-13 2019 St Nick Aspire Gymnastics Academy 1 3 SrA 9.500 1 9.875 1 9.425 1 9.325 4T 38.125 1
2019-03-08 2019 Illinois Level 3 State Championship Aspire Gymnastics Academy All 3 Ch D 9.400 16T 9.650 4T 8.350 23 9.000 20T 36.400 19
2019-02-23 Kinetic Classic 2019 Aspire Gymnastics Academy 1 3 Younger 9.075 7T 8.950 19T 8.875 22 8.700 28T 35.600 16T
2019-02-15 Big ClassicBIG CLASSIC Aspire Gymnastics Academy 1A 3 Child B 9.125 4T 9.525 1 9.075 6 8.875 4 36.600 2
2019-01-25 UGA Invitational Aspire Gymnastics Academy B09 3 Ch B 9.375 6 9.275 1 8.350 9T 8.300 15 35.300 7
2019-01-18 2019 Bravo Classic Aspire Gymnastics Academy 8B 3 Child 8.575 10 9.050 7 8.350 14 8.750 11T 34.725 13
2018-12-14 2018 Aspire Classic Aspire Gymnastics Academy 2 3 Jr A 9.400 3T 9.000 6* 8.550 10T 8.400 14 35.350 9T
2018-11-17 Paul Hamm Thanksgiving Class WOMENS Aspire Gymnastics Academy 1 3 Younger 9.450 1 9.000 5 8.900 7 8.650 9 36.000 3
Get your scores on
a t-shirt, pin, or hoodie